Search METAR Data

METAR Data for ENHK:

ENHK 241250Z AUTO 11015KT 9999 NCD 05/01 Q1012